createdAt,value
2022-12-22T00:00:15.365Z,11.9
2022-12-22T00:01:23.749Z,11.9
2022-12-22T00:02:32.370Z,12
2022-12-22T00:03:40.787Z,12
2022-12-22T00:04:48.998Z,12
2022-12-22T00:05:57.566Z,13.2
2022-12-22T00:07:05.925Z,13.2
2022-12-22T00:08:14.252Z,13.2
2022-12-22T00:09:22.812Z,12.7
2022-12-22T00:10:31.151Z,12.7
2022-12-22T00:11:39.500Z,12.7
2022-12-22T00:12:48.067Z,12.4
2022-12-22T00:13:56.403Z,12.4
2022-12-22T00:15:04.758Z,12.4
2022-12-22T00:16:13.425Z,10.9
2022-12-22T00:17:21.708Z,10.9
2022-12-22T00:18:30.045Z,10.9
2022-12-22T00:19:38.625Z,8.3
2022-12-22T00:20:47.000Z,8.3
2022-12-22T00:21:55.338Z,8.3
2022-12-22T00:23:03.900Z,7.8
2022-12-22T00:24:12.223Z,7.8
2022-12-22T00:25:20.585Z,7.8
2022-12-22T00:26:29.145Z,7
2022-12-22T00:27:41.234Z,7
2022-12-22T00:28:45.859Z,7
2022-12-22T00:29:54.398Z,6.6
2022-12-22T00:31:02.810Z,6.6
2022-12-22T00:32:11.132Z,6.6
2022-12-22T00:33:19.697Z,6
2022-12-22T00:34:32.398Z,6
2022-12-22T00:35:36.391Z,6
2022-12-22T00:36:44.948Z,5.5
2022-12-22T00:37:53.289Z,5.5
2022-12-22T00:39:01.653Z,5.5
2022-12-22T00:40:10.190Z,5.4
2022-12-22T00:41:18.605Z,5.4
2022-12-22T00:42:26.947Z,5.4
2022-12-22T00:43:35.491Z,5.6
2022-12-22T00:44:43.855Z,5.6
2022-12-22T00:45:52.223Z,5.6
2022-12-22T00:47:00.750Z,5.9
2022-12-22T00:48:09.099Z,5.9
2022-12-22T00:49:17.421Z,5.9
2022-12-22T00:50:25.991Z,6.3
2022-12-22T00:51:34.362Z,6.3
2022-12-22T00:52:42.716Z,6.3
2022-12-22T00:53:51.280Z,7.1
2022-12-22T00:54:59.634Z,7.1
2022-12-22T00:56:07.983Z,7.1
2022-12-22T00:57:16.522Z,6.8
2022-12-22T00:58:24.875Z,6.8
2022-12-22T00:59:33.235Z,6.8
2022-12-22T01:00:41.772Z,7
2022-12-22T01:01:50.337Z,7
2022-12-22T01:02:58.564Z,7
2022-12-22T01:04:07.053Z,8.1
2022-12-22T01:05:15.373Z,8.1
2022-12-22T01:06:23.730Z,8.1
2022-12-22T01:07:32.284Z,8.3
2022-12-22T01:08:40.658Z,8.3
2022-12-22T01:09:48.988Z,8.3
2022-12-22T01:10:57.551Z,8.8
2022-12-22T01:12:05.880Z,8.8
2022-12-22T01:13:14.237Z,8.8
2022-12-22T01:14:22.774Z,9
2022-12-22T01:15:31.153Z,9
2022-12-22T01:16:39.454Z,9
2022-12-22T01:17:48.015Z,8.8
2022-12-22T01:18:56.347Z,8.8
2022-12-22T01:20:04.709Z,8.8
2022-12-22T01:21:13.257Z,6.6
2022-12-22T01:22:21.598Z,6.6
2022-12-22T01:23:29.944Z,6.6
2022-12-22T01:24:38.483Z,6.4
2022-12-22T01:25:46.857Z,6.4
2022-12-22T01:26:55.252Z,6.4
2022-12-22T01:28:03.790Z,5.9
2022-12-22T01:29:12.124Z,5.9
2022-12-22T01:30:20.493Z,5.9
2022-12-22T01:31:29.134Z,6.5
2022-12-22T01:32:37.380Z,6.5
2022-12-22T01:33:45.729Z,6.5
2022-12-22T01:34:54.268Z,6.7
2022-12-22T01:36:02.636Z,6.7
2022-12-22T01:37:10.963Z,6.7
2022-12-22T01:38:19.506Z,6.6
2022-12-22T01:39:27.865Z,6.6
2022-12-22T01:40:36.195Z,6.6
2022-12-22T01:41:44.760Z,6.4
2022-12-22T01:42:53.142Z,6.4
2022-12-22T01:44:01.444Z,6.4
2022-12-22T01:45:10.008Z,6.1
2022-12-22T01:46:18.376Z,6.1
2022-12-22T01:47:26.689Z,6.1
2022-12-22T01:48:35.248Z,5.2
2022-12-22T01:49:43.606Z,5.2
2022-12-22T01:50:51.924Z,5.2
2022-12-22T01:52:00.510Z,5
2022-12-22T01:53:08.832Z,5
2022-12-22T01:54:17.200Z,5
2022-12-22T01:55:25.732Z,4.8
2022-12-22T01:56:34.096Z,4.8
2022-12-22T01:57:42.419Z,4.8
2022-12-22T01:58:51.001Z,4.5
2022-12-22T01:59:59.385Z,4.5
2022-12-22T02:01:07.720Z,4.5
2022-12-22T02:02:16.328Z,4.1
2022-12-22T02:03:24.612Z,4.1
2022-12-22T02:04:32.906Z,4.1
2022-12-22T02:05:41.457Z,5.3
2022-12-22T02:06:53.160Z,5.3
2022-12-22T02:07:58.153Z,5.3
2022-12-22T02:09:06.698Z,5.9
2022-12-22T02:10:15.043Z,5.9
2022-12-22T02:11:23.389Z,5.9
2022-12-22T02:12:31.930Z,6.1
2022-12-22T02:13:40.279Z,6.1
2022-12-22T02:14:48.656Z,6.1
2022-12-22T02:15:57.236Z,7.2
2022-12-22T02:17:05.513Z,7.2
2022-12-22T02:18:13.856Z,7.2
2022-12-22T02:19:22.444Z,8
2022-12-22T02:20:30.773Z,8
2022-12-22T02:21:39.130Z,8
2022-12-22T02:22:47.676Z,7.8
2022-12-22T02:23:56.007Z,7.8
2022-12-22T02:25:04.348Z,7.8
2022-12-22T02:26:12.896Z,8.3
2022-12-22T02:27:21.235Z,8.3
2022-12-22T02:28:29.610Z,8.3
2022-12-22T02:29:38.164Z,8
2022-12-22T02:30:46.526Z,8
2022-12-22T02:31:54.851Z,8
2022-12-22T02:33:09.071Z,8.6
2022-12-22T02:34:11.750Z,8.6
2022-12-22T02:35:20.076Z,8.6
2022-12-22T02:36:28.622Z,8.1
2022-12-22T02:37:36.957Z,8.1
2022-12-22T02:38:45.301Z,8.1
2022-12-22T02:39:53.839Z,8.2
2022-12-22T02:41:02.189Z,8.2
2022-12-22T02:42:10.550Z,8.2
2022-12-22T02:43:19.090Z,8.1
2022-12-22T02:44:27.455Z,8.1
2022-12-22T02:45:35.789Z,8.1
2022-12-22T02:46:44.394Z,6
2022-12-22T02:47:52.692Z,6
2022-12-22T02:49:01.031Z,6
2022-12-22T02:50:09.578Z,6
2022-12-22T02:51:17.942Z,6
2022-12-22T02:52:26.285Z,6
2022-12-22T02:53:34.831Z,6
2022-12-22T02:54:43.168Z,6
2022-12-22T02:55:51.494Z,6
2022-12-22T02:57:00.131Z,5.6
2022-12-22T02:58:08.406Z,5.6
2022-12-22T02:59:16.749Z,5.6
2022-12-22T03:00:25.305Z,5.2
2022-12-22T03:01:33.809Z,5.2
2022-12-22T03:02:42.092Z,5.2
2022-12-22T03:03:50.596Z,5.2
2022-12-22T03:04:58.897Z,5.2
2022-12-22T03:06:07.245Z,5.2
2022-12-22T03:07:15.793Z,5.6
2022-12-22T03:08:24.138Z,5.6
2022-12-22T03:09:32.475Z,5.6
2022-12-22T03:10:41.014Z,5.3
2022-12-22T03:11:49.370Z,5.3
2022-12-22T03:12:57.716Z,5.3
2022-12-22T03:14:06.258Z,5.8
2022-12-22T03:15:14.601Z,5.8
2022-12-22T03:16:22.989Z,5.8
2022-12-22T03:17:31.499Z,5.4
2022-12-22T03:18:39.870Z,5.4
2022-12-22T03:19:48.162Z,5.4
2022-12-22T03:20:56.707Z,5.1
2022-12-22T03:22:05.072Z,5.1
2022-12-22T03:23:13.471Z,5.1
2022-12-22T03:24:21.969Z,4.9
2022-12-22T03:25:30.300Z,4.9
2022-12-22T03:26:38.649Z,4.9
2022-12-22T03:27:47.191Z,5.4
2022-12-22T03:28:55.546Z,5.4
2022-12-22T03:30:03.918Z,5.4
2022-12-22T03:31:12.512Z,5.7
2022-12-22T03:32:20.794Z,5.7
2022-12-22T03:33:29.155Z,5.7
2022-12-22T03:34:37.720Z,6
2022-12-22T03:35:46.035Z,6
2022-12-22T03:36:54.406Z,6
2022-12-22T03:38:02.939Z,5.1
2022-12-22T03:39:11.305Z,5.1
2022-12-22T03:40:19.662Z,5.1
2022-12-22T03:41:28.207Z,5.6
2022-12-22T03:42:36.525Z,5.6
2022-12-22T03:43:44.865Z,5.6
2022-12-22T03:44:53.414Z,4.8
2022-12-22T03:46:01.761Z,4.8
2022-12-22T03:47:10.185Z,4.8
2022-12-22T03:48:18.677Z,4.7
2022-12-22T03:49:27.044Z,4.7
2022-12-22T03:50:35.414Z,4.7
2022-12-22T03:51:43.953Z,4.1
2022-12-22T03:52:52.281Z,4.1
2022-12-22T03:54:00.620Z,4.1
2022-12-22T03:55:09.159Z,4.4
2022-12-22T03:56:17.517Z,4.4
2022-12-22T03:57:25.850Z,4.4
2022-12-22T03:58:34.402Z,4.6
2022-12-22T03:59:42.737Z,4.6
2022-12-22T04:00:51.083Z,4.6
2022-12-22T04:01:59.817Z,4.3
2022-12-22T04:03:08.132Z,4.3
2022-12-22T04:04:16.300Z,4.3
2022-12-22T04:05:24.850Z,4.4
2022-12-22T04:06:33.255Z,4.4
2022-12-22T04:07:41.555Z,4.4
2022-12-22T04:08:50.108Z,4.3
2022-12-22T04:09:58.432Z,4.3
2022-12-22T04:11:06.755Z,4.3
2022-12-22T04:12:15.332Z,3.5
2022-12-22T04:13:23.667Z,3.5
2022-12-22T04:14:34.472Z,3.5
2022-12-22T04:15:40.539Z,3.5
2022-12-22T04:16:48.993Z,3.5
2022-12-22T04:17:57.237Z,3.5
2022-12-22T04:19:05.797Z,3.7
2022-12-22T04:20:14.147Z,3.7
2022-12-22T04:21:22.489Z,3.7
2022-12-22T04:22:31.068Z,3.9
2022-12-22T04:23:39.389Z,3.9
2022-12-22T04:24:47.718Z,3.9
2022-12-22T04:25:56.255Z,4.2
2022-12-22T04:27:04.608Z,4.2
2022-12-22T04:28:12.928Z,4.2
2022-12-22T04:29:21.476Z,3.7
2022-12-22T04:30:29.828Z,3.7
2022-12-22T04:31:38.238Z,3.7
2022-12-22T04:32:46.697Z,3.7
2022-12-22T04:33:55.069Z,3.7
2022-12-22T04:35:03.396Z,3.7
2022-12-22T04:36:11.968Z,3.9
2022-12-22T04:37:20.311Z,3.9
2022-12-22T04:38:28.668Z,3.9
2022-12-22T04:39:37.191Z,4
2022-12-22T04:40:45.525Z,4
2022-12-22T04:41:53.874Z,4
2022-12-22T04:43:02.416Z,3.8
2022-12-22T04:44:10.745Z,3.8
2022-12-22T04:45:19.088Z,3.8
2022-12-22T04:46:27.756Z,3.9
2022-12-22T04:47:35.983Z,3.9
2022-12-22T04:48:44.328Z,3.9
2022-12-22T04:49:52.865Z,4.5
2022-12-22T04:51:01.196Z,4.5
2022-12-22T04:52:09.602Z,4.5
2022-12-22T04:53:18.137Z,3.9
2022-12-22T04:54:26.526Z,3.9
2022-12-22T04:55:34.817Z,3.9
2022-12-22T04:56:43.364Z,4.1
2022-12-22T04:57:51.729Z,4.1
2022-12-22T04:59:00.083Z,4.1
2022-12-22T05:00:08.608Z,3.7
2022-12-22T05:01:17.048Z,3.7
2022-12-22T05:02:25.456Z,3.7
2022-12-22T05:03:33.897Z,3.3
2022-12-22T05:04:42.197Z,3.3
2022-12-22T05:05:50.546Z,3.3
2022-12-22T05:06:59.090Z,2.8
2022-12-22T05:08:07.439Z,2.8
2022-12-22T05:09:15.778Z,2.8
2022-12-22T05:10:24.342Z,2.6
2022-12-22T05:11:32.690Z,2.6
2022-12-22T05:12:41.024Z,2.6
2022-12-22T05:13:49.567Z,2.2
2022-12-22T05:14:57.917Z,2.2
2022-12-22T05:16:06.267Z,2.2
2022-12-22T05:17:14.821Z,3.1
2022-12-22T05:18:23.165Z,3.1
2022-12-22T05:19:31.501Z,3.1
2022-12-22T05:20:40.050Z,2.9
2022-12-22T05:21:48.413Z,2.9
2022-12-22T05:22:56.747Z,2.9
2022-12-22T05:24:05.293Z,3.2
2022-12-22T05:25:13.599Z,3.2
2022-12-22T05:26:21.952Z,3.2
2022-12-22T05:27:30.459Z,3.2
2022-12-22T05:28:38.795Z,3.2
2022-12-22T05:29:47.153Z,3.2
2022-12-22T05:30:55.747Z,2.8
2022-12-22T05:32:04.855Z,2.8
2022-12-22T05:33:13.176Z,2.8
2022-12-22T05:34:21.721Z,2.5
2022-12-22T05:35:30.071Z,2.5
2022-12-22T05:36:38.392Z,2.5
2022-12-22T05:37:46.932Z,2.2
2022-12-22T05:38:55.271Z,2.2
2022-12-22T05:40:03.634Z,2.2
2022-12-22T05:41:12.263Z,2.1
2022-12-22T05:42:20.645Z,2.1
2022-12-22T05:43:28.969Z,2.1
2022-12-22T05:44:37.511Z,2
2022-12-22T05:45:45.920Z,2
2022-12-22T05:46:54.229Z,2
2022-12-22T05:48:02.784Z,133.89999
2022-12-22T05:49:11.152Z,133.89999
2022-12-22T05:50:19.512Z,133.89999
2022-12-22T05:51:28.054Z,2.9
2022-12-22T05:52:36.414Z,2.9
2022-12-22T05:53:44.784Z,2.9
2022-12-22T05:54:53.317Z,2.6
2022-12-22T05:56:01.673Z,2.6
2022-12-22T05:57:10.019Z,2.6
2022-12-22T05:58:18.655Z,3.7
2022-12-22T05:59:26.996Z,3.7
2022-12-22T06:00:35.344Z,3.7
2022-12-22T06:01:44.013Z,4.1
2022-12-22T06:02:52.379Z,4.1
2022-12-22T06:04:01.049Z,4.1
2022-12-22T06:05:09.259Z,13.7
2022-12-22T06:06:17.616Z,13.7
2022-12-22T06:07:25.979Z,13.7
2022-12-22T06:08:34.535Z,7.2
2022-12-22T06:09:42.902Z,7.2
2022-12-22T06:10:51.266Z,7.2
2022-12-22T06:11:59.849Z,25.1
2022-12-22T06:13:08.217Z,25.1
2022-12-22T06:14:16.599Z,25.1
2022-12-22T06:15:25.176Z,14.1
2022-12-22T06:16:33.615Z,14.1
2022-12-22T06:17:44.957Z,14.1
2022-12-22T06:18:50.455Z,13.6
2022-12-22T06:19:58.832Z,13.6
2022-12-22T06:21:07.245Z,13.6
2022-12-22T06:22:15.783Z,14.4
2022-12-22T06:23:24.141Z,14.4
2022-12-22T06:24:32.492Z,14.4
2022-12-22T06:25:41.082Z,13.9
2022-12-22T06:26:49.451Z,13.9
2022-12-22T06:27:57.832Z,13.9
2022-12-22T06:29:06.379Z,19.200001
2022-12-22T06:30:14.767Z,19.200001
2022-12-22T06:31:23.171Z,19.200001
2022-12-22T06:32:31.668Z,20.200001
2022-12-22T06:33:40.017Z,20.200001
2022-12-22T06:34:48.378Z,20.200001
2022-12-22T06:35:59.469Z,26.1
2022-12-22T06:37:05.355Z,26.1
2022-12-22T06:38:13.750Z,26.1
2022-12-22T06:39:22.322Z,13.8
2022-12-22T06:40:30.681Z,13.8
2022-12-22T06:41:39.029Z,13.8
2022-12-22T06:42:47.608Z,12.1
2022-12-22T06:43:55.947Z,12.1
2022-12-22T06:45:04.302Z,12.1
2022-12-22T06:46:12.950Z,14.2
2022-12-22T06:47:21.226Z,14.2
2022-12-22T06:48:29.573Z,14.2
2022-12-22T06:49:38.121Z,8.6
2022-12-22T06:50:46.489Z,8.6
2022-12-22T06:51:54.804Z,8.6
2022-12-22T06:53:03.349Z,10.5
2022-12-22T06:54:11.681Z,10.5
2022-12-22T06:55:20.059Z,10.5
2022-12-22T06:56:28.627Z,7.7
2022-12-22T06:57:36.976Z,7.7
2022-12-22T06:58:45.306Z,7.7
2022-12-22T06:59:57.595Z,8.9
2022-12-22T07:01:02.215Z,8.9
2022-12-22T07:02:10.692Z,8.9
2022-12-22T07:03:19.334Z,10.2
2022-12-22T07:04:27.499Z,10.2
2022-12-22T07:05:35.835Z,10.2
2022-12-22T07:06:44.431Z,43.400002
2022-12-22T07:07:52.763Z,43.400002
2022-12-22T07:09:01.143Z,43.400002
2022-12-22T07:10:09.677Z,32.200001
2022-12-22T07:11:18.030Z,32.200001
2022-12-22T07:12:26.373Z,32.200001
2022-12-22T07:13:35.054Z,31.1
2022-12-22T07:14:43.358Z,31.1
2022-12-22T07:15:59.429Z,31.1
2022-12-22T07:17:00.261Z,4.1
2022-12-22T07:18:08.633Z,4.1
2022-12-22T07:19:16.948Z,4.1
2022-12-22T07:20:25.504Z,4.1
2022-12-22T07:21:33.856Z,4.1
2022-12-22T07:22:42.272Z,4.1
2022-12-22T07:23:50.867Z,5.1
2022-12-22T07:24:59.216Z,5.1
2022-12-22T07:26:07.602Z,5.1
2022-12-22T07:27:16.144Z,3.7
2022-12-22T07:28:24.515Z,3.7
2022-12-22T07:29:32.914Z,3.7
2022-12-22T07:30:41.476Z,3.8
2022-12-22T07:31:49.897Z,3.8
2022-12-22T07:32:58.181Z,3.8
2022-12-22T07:34:06.825Z,3.6
2022-12-22T07:35:15.189Z,3.6
2022-12-22T07:36:23.567Z,3.6
2022-12-22T07:37:32.130Z,3.8
2022-12-22T07:38:40.480Z,3.8
2022-12-22T07:39:48.840Z,3.8
2022-12-22T07:41:02.890Z,4.2
2022-12-22T07:42:05.758Z,4.2
2022-12-22T07:43:14.152Z,4.2
2022-12-22T07:44:22.669Z,4.6
2022-12-22T07:45:31.038Z,4.6
2022-12-22T07:46:39.497Z,4.6
2022-12-22T07:47:47.972Z,4.5
2022-12-22T07:48:56.309Z,4.5
2022-12-22T07:50:04.715Z,4.5
2022-12-22T07:51:13.227Z,4.7
2022-12-22T07:52:21.582Z,4.7
2022-12-22T07:53:29.946Z,4.7
2022-12-22T07:54:41.915Z,6.9
2022-12-22T07:55:46.869Z,6.9
2022-12-22T07:56:55.247Z,6.9
2022-12-22T07:58:03.844Z,5.7
2022-12-22T07:59:12.197Z,5.7
2022-12-22T08:00:20.547Z,5.7
2022-12-22T08:01:29.243Z,4.6
2022-12-22T08:02:39.250Z,4.6
2022-12-22T08:03:45.835Z,4.6
2022-12-22T08:04:54.486Z,5.2
2022-12-22T08:06:02.772Z,5.2
2022-12-22T08:07:11.126Z,5.2
2022-12-22T08:08:19.713Z,5.6
2022-12-22T08:09:28.062Z,5.6
2022-12-22T08:10:36.448Z,5.6
2022-12-22T08:11:45.057Z,4.2
2022-12-22T08:12:53.402Z,4.2
2022-12-22T08:14:02.265Z,4.2
2022-12-22T08:15:10.270Z,3.5
2022-12-22T08:16:18.652Z,3.5
2022-12-22T08:17:26.988Z,3.5
2022-12-22T08:18:35.577Z,3
2022-12-22T08:19:43.971Z,3
2022-12-22T08:20:52.346Z,3
2022-12-22T08:22:00.919Z,4.4
2022-12-22T08:23:09.243Z,4.4
2022-12-22T08:24:17.607Z,4.4
2022-12-22T08:25:26.151Z,3.2
2022-12-22T08:26:34.524Z,3.2
2022-12-22T08:27:42.911Z,3.2
2022-12-22T08:28:51.462Z,8.7
2022-12-22T08:29:59.818Z,8.7
2022-12-22T08:31:08.228Z,8.7
2022-12-22T08:32:16.797Z,8.8
2022-12-22T08:33:25.159Z,8.8
2022-12-22T08:34:33.515Z,8.8
2022-12-22T08:35:42.079Z,3.1
2022-12-22T08:36:50.450Z,3.1
2022-12-22T08:37:58.831Z,3.1
2022-12-22T08:39:07.360Z,2.7
2022-12-22T08:40:15.747Z,2.7
2022-12-22T08:41:24.087Z,2.7
2022-12-22T08:42:32.657Z,1.5
2022-12-22T08:43:40.992Z,1.5
2022-12-22T08:44:49.354Z,1.5
2022-12-22T08:45:57.908Z,2.1
2022-12-22T08:47:08.928Z,2.1
2022-12-22T08:48:14.689Z,2.1
2022-12-22T08:49:23.247Z,2.3
2022-12-22T08:50:31.609Z,2.3
2022-12-22T08:51:39.982Z,2.3
2022-12-22T08:52:48.548Z,1.6
2022-12-22T08:54:05.740Z,1.6
2022-12-22T08:55:05.293Z,1.6
2022-12-22T08:56:13.858Z,0.8
2022-12-22T08:57:22.214Z,0.8
2022-12-22T08:58:30.572Z,0.8
2022-12-22T08:59:39.130Z,1.4
2022-12-22T09:00:47.519Z,1.4
2022-12-22T09:01:55.936Z,1.4
2022-12-22T09:03:04.545Z,1.4
2022-12-22T09:04:12.752Z,1.4
2022-12-22T09:05:21.100Z,1.4
2022-12-22T09:06:33.256Z,2.1
2022-12-22T09:07:38.047Z,2.1
2022-12-22T09:08:46.426Z,2.1
2022-12-22T09:09:55.012Z,0.9
2022-12-22T09:11:03.349Z,0.9
2022-12-22T09:12:11.717Z,0.9
2022-12-22T09:13:20.283Z,1
2022-12-22T09:14:28.625Z,1
2022-12-22T09:15:36.974Z,1
2022-12-22T09:16:45.567Z,0.7
2022-12-22T09:17:53.887Z,0.7
2022-12-22T09:19:02.233Z,0.7
2022-12-22T09:20:10.799Z,4
2022-12-22T09:21:19.152Z,4
2022-12-22T09:22:28.343Z,4
2022-12-22T09:23:36.089Z,1.4
2022-12-22T09:24:44.432Z,1.4
2022-12-22T09:25:52.824Z,1.4
2022-12-22T09:27:01.342Z,0.6
2022-12-22T09:28:09.685Z,0.6
2022-12-22T09:29:18.044Z,0.6
2022-12-22T09:30:26.591Z,0.8
2022-12-22T09:31:35.031Z,0.8
2022-12-22T09:32:43.356Z,0.8
2022-12-22T09:33:51.921Z,1.1
2022-12-22T09:35:00.274Z,1.1
2022-12-22T09:36:08.637Z,1.1
2022-12-22T09:37:17.209Z,1.6
2022-12-22T09:38:25.538Z,1.6
2022-12-22T09:39:33.867Z,1.6
2022-12-22T09:40:42.439Z,1.3
2022-12-22T09:41:50.858Z,1.3
2022-12-22T09:42:59.150Z,1.3
2022-12-22T09:44:07.691Z,1.3
2022-12-22T09:45:17.336Z,1.3
2022-12-22T09:46:24.478Z,1.3
2022-12-22T09:47:33.020Z,1.7
2022-12-22T09:48:41.356Z,1.7
2022-12-22T09:49:49.679Z,1.7
2022-12-22T09:50:58.229Z,1.6
2022-12-22T09:52:06.588Z,1.6
2022-12-22T09:53:14.928Z,1.6
2022-12-22T09:54:23.518Z,1.7
2022-12-22T09:55:31.885Z,1.7
2022-12-22T09:56:40.235Z,1.7
2022-12-22T09:57:48.813Z,1.3
2022-12-22T09:58:57.179Z,1.3
2022-12-22T10:00:05.553Z,1.3
2022-12-22T10:01:14.171Z,1.2
2022-12-22T10:02:22.514Z,1.2
2022-12-22T10:03:30.897Z,1.2
2022-12-22T10:04:39.417Z,2.9
2022-12-22T10:05:47.765Z,2.9
2022-12-22T10:06:56.138Z,2.9
2022-12-22T10:08:04.684Z,1.2
2022-12-22T10:09:36.134Z,1.2
2022-12-22T10:10:21.418Z,1.2
2022-12-22T10:11:29.985Z,1.2
2022-12-22T10:12:38.323Z,1.2
2022-12-22T10:13:46.711Z,1.2
2022-12-22T10:14:55.215Z,0.9
2022-12-22T10:16:03.547Z,0.9
2022-12-22T10:17:11.968Z,0.9
2022-12-22T10:18:20.516Z,1.6
2022-12-22T10:19:28.865Z,1.6
2022-12-22T10:20:37.213Z,1.6
2022-12-22T10:21:47.051Z,1.1
2022-12-22T10:22:54.127Z,1.1
2022-12-22T10:24:02.483Z,1.1
2022-12-22T10:25:11.071Z,1.4
2022-12-22T10:26:34.900Z,1.4
2022-12-22T10:27:29.354Z,1.4
2022-12-22T10:28:36.356Z,1.5
2022-12-22T10:29:44.724Z,1.5
2022-12-22T10:30:53.054Z,1.5
2022-12-22T10:32:02.092Z,2
2022-12-22T10:33:10.173Z,2
2022-12-22T10:34:18.557Z,2
2022-12-22T10:35:27.112Z,2
2022-12-22T10:36:35.492Z,2
2022-12-22T10:37:43.846Z,2
2022-12-22T10:38:52.428Z,1.9
2022-12-22T10:40:00.778Z,1.9
2022-12-22T10:41:09.113Z,1.9
2022-12-22T10:42:17.711Z,1.3
2022-12-22T10:43:26.070Z,1.3
2022-12-22T10:44:34.424Z,1.3
2022-12-22T10:45:43.011Z,1
2022-12-22T10:46:51.329Z,1
2022-12-22T10:47:59.692Z,1
2022-12-22T10:49:08.228Z,0.6
2022-12-22T10:50:16.673Z,0.6
2022-12-22T10:51:24.938Z,0.6
2022-12-22T10:52:33.493Z,0.9
2022-12-22T10:53:41.846Z,0.9
2022-12-22T10:54:50.185Z,0.9
2022-12-22T10:55:58.745Z,1
2022-12-22T10:57:07.094Z,1
2022-12-22T10:58:15.461Z,1
2022-12-22T10:59:24.017Z,1
2022-12-22T11:00:32.370Z,1
2022-12-22T11:01:40.854Z,1
2022-12-22T11:02:49.356Z,1.1
2022-12-22T11:03:57.641Z,1.1
2022-12-22T11:05:05.945Z,1.1
2022-12-22T11:06:14.542Z,1.1
2022-12-22T11:07:22.890Z,1.1
2022-12-22T11:08:31.217Z,1.1
2022-12-22T11:09:39.785Z,1.1
2022-12-22T11:10:48.146Z,1.1
2022-12-22T11:11:56.490Z,1.1
2022-12-22T11:13:05.050Z,1.4
2022-12-22T11:14:13.407Z,1.4
2022-12-22T11:15:24.471Z,1.4
2022-12-22T11:16:30.365Z,1
2022-12-22T11:17:38.664Z,1
2022-12-22T11:18:46.978Z,1
2022-12-22T11:19:55.533Z,0.9
2022-12-22T11:21:03.900Z,0.9
2022-12-22T11:22:12.228Z,0.9
2022-12-22T11:23:20.791Z,1
2022-12-22T11:24:29.156Z,1
2022-12-22T11:25:37.494Z,1
2022-12-22T11:26:46.049Z,0.9
2022-12-22T11:27:54.425Z,0.9
2022-12-22T11:29:02.771Z,0.9
2022-12-22T11:30:11.305Z,0.9
2022-12-22T11:31:19.700Z,0.9
2022-12-22T11:32:28.021Z,0.9
2022-12-22T11:33:36.620Z,0.7
2022-12-22T11:34:44.931Z,0.7
2022-12-22T11:35:53.283Z,0.7
2022-12-22T11:37:01.859Z,0.7
2022-12-22T11:38:15.089Z,0.7
2022-12-22T11:39:31.618Z,0.7
2022-12-22T11:40:40.171Z,0.8
2022-12-22T11:41:48.513Z,0.8
2022-12-22T11:42:56.830Z,0.8
2022-12-22T11:44:05.395Z,0.9
2022-12-22T11:45:13.738Z,0.9
2022-12-22T11:46:22.197Z,0.9
2022-12-22T11:47:32.382Z,0.5
2022-12-22T11:48:40.745Z,0.5
2022-12-22T11:49:49.064Z,0.5
2022-12-22T11:51:07.640Z,0.6
2022-12-22T11:52:06.701Z,0.6
2022-12-22T11:53:15.043Z,0.6
2022-12-22T11:54:23.600Z,5.5
2022-12-22T11:55:31.927Z,5.5
2022-12-22T11:56:40.348Z,5.5
2022-12-22T11:57:49.098Z,0.7
2022-12-22T11:58:57.430Z,0.7
2022-12-22T12:00:05.766Z,0.7
2022-12-22T12:01:20.286Z,0.9
2022-12-22T12:02:22.855Z,0.9
2022-12-22T12:03:31.111Z,0.9
2022-12-22T12:04:39.599Z,0.8
2022-12-22T12:05:47.902Z,0.8
2022-12-22T12:06:56.252Z,0.8
2022-12-22T12:08:04.834Z,0.7
2022-12-22T12:09:13.147Z,0.7
2022-12-22T12:10:21.497Z,0.7
2022-12-22T12:11:30.115Z,0.8
2022-12-22T12:12:38.494Z,0.8
2022-12-22T12:13:46.830Z,0.8
2022-12-22T12:14:55.424Z,0.8
2022-12-22T12:16:03.859Z,0.8
2022-12-22T12:17:12.150Z,0.8
2022-12-22T12:18:20.749Z,0.6
2022-12-22T12:19:29.211Z,0.6
2022-12-22T12:20:37.480Z,0.6
2022-12-22T12:21:46.047Z,0.6
2022-12-22T12:22:54.376Z,0.6
2022-12-22T12:24:02.750Z,0.6
2022-12-22T12:25:11.349Z,0.6
2022-12-22T12:26:19.686Z,0.6
2022-12-22T12:27:28.040Z,0.6
2022-12-22T12:28:36.604Z,0.9
2022-12-22T12:29:46.598Z,0.9
2022-12-22T12:30:53.394Z,0.9
2022-12-22T12:32:02.072Z,0.6
2022-12-22T12:33:10.276Z,0.6
2022-12-22T12:34:18.688Z,0.6
2022-12-22T12:35:27.212Z,1.9
2022-12-22T12:36:35.589Z,1.9
2022-12-22T12:37:43.952Z,1.9
2022-12-22T12:39:09.004Z,0.9
2022-12-22T12:40:00.862Z,0.9
2022-12-22T12:41:09.273Z,0.9
2022-12-22T12:42:17.814Z,1
2022-12-22T12:43:26.206Z,1
2022-12-22T12:44:34.543Z,1
2022-12-22T12:45:43.138Z,1
2022-12-22T12:46:51.596Z,1
2022-12-22T12:47:59.825Z,1
2022-12-22T12:49:08.364Z,0.7
2022-12-22T12:50:16.741Z,0.7
2022-12-22T12:51:25.119Z,0.7
2022-12-22T12:52:33.684Z,0.7
2022-12-22T12:53:42.108Z,0.7
2022-12-22T12:54:50.419Z,0.7
2022-12-22T12:55:58.979Z,0.8
2022-12-22T12:57:07.338Z,0.8
2022-12-22T12:58:15.743Z,0.8
2022-12-22T12:59:24.288Z,1.5
2022-12-22T13:00:32.725Z,1.5
2022-12-22T13:01:41.108Z,1.5
2022-12-22T13:02:49.756Z,0.4
2022-12-22T13:04:03.416Z,0.4
2022-12-22T13:05:06.374Z,0.4
2022-12-22T13:06:14.944Z,0.5
2022-12-22T13:07:23.293Z,0.5
2022-12-22T13:08:31.696Z,0.5
2022-12-22T13:09:50.281Z,0.5
2022-12-22T13:10:48.571Z,0.5
2022-12-22T13:12:13.793Z,0.5
2022-12-22T13:13:05.492Z,1
2022-12-22T13:14:13.903Z,1
2022-12-22T13:15:22.185Z,1
2022-12-22T13:16:30.778Z,0.6
2022-12-22T13:17:39.129Z,0.6
2022-12-22T13:18:50.083Z,0.6
2022-12-22T13:19:56.032Z,0.6
2022-12-22T13:21:34.140Z,0.6
2022-12-22T13:22:12.743Z,0.6
2022-12-22T13:23:21.344Z,0.8
2022-12-22T13:24:29.787Z,0.8
2022-12-22T13:25:38.023Z,0.8
2022-12-22T13:26:46.595Z,0.7
2022-12-22T13:27:54.961Z,0.7
2022-12-22T13:29:03.335Z,0.7
2022-12-22T13:30:13.167Z,0.6
2022-12-22T13:31:20.337Z,0.6
2022-12-22T13:32:28.656Z,0.6
2022-12-22T13:33:37.256Z,1
2022-12-22T13:35:04.760Z,1
2022-12-22T13:35:58.657Z,1
2022-12-22T13:37:02.556Z,0.9
2022-12-22T13:38:10.960Z,0.9
2022-12-22T13:39:19.302Z,0.9
2022-12-22T13:40:27.890Z,0.9
2022-12-22T13:41:36.269Z,0.9
2022-12-22T13:42:44.698Z,0.9
2022-12-22T13:43:53.172Z,1
2022-12-22T13:45:01.541Z,1
2022-12-22T13:46:09.914Z,1
2022-12-22T13:47:18.505Z,0.7
2022-12-22T13:48:26.834Z,0.7
2022-12-22T13:50:06.888Z,0.7
2022-12-22T13:50:43.830Z,0.6
2022-12-22T13:51:52.187Z,0.6
2022-12-22T13:53:00.565Z,0.6
2022-12-22T13:54:10.817Z,0.7
2022-12-22T13:55:17.470Z,0.7
2022-12-22T13:56:25.900Z,0.7
2022-12-22T13:57:34.430Z,1.1
2022-12-22T13:58:42.763Z,1.1
2022-12-22T13:59:51.145Z,1.1
2022-12-22T14:00:59.813Z,1.1
2022-12-22T14:02:08.262Z,1.1
2022-12-22T14:03:41.538Z,1.1
2022-12-22T14:04:25.217Z,0.6
2022-12-22T14:05:33.488Z,0.6
2022-12-22T14:06:41.944Z,0.6
2022-12-22T14:07:50.513Z,0.7
2022-12-22T14:08:58.866Z,0.7
2022-12-22T14:10:07.221Z,0.7
2022-12-22T14:11:15.794Z,2.9
2022-12-22T14:12:24.224Z,2.9
2022-12-22T14:13:32.532Z,2.9
2022-12-22T14:14:41.082Z,3.4
2022-12-22T14:15:49.464Z,3.4
2022-12-22T14:16:57.917Z,3.4
2022-12-22T14:18:06.384Z,1.2
2022-12-22T14:19:14.803Z,1.2
2022-12-22T14:20:23.130Z,1.2
2022-12-22T14:21:31.753Z,3.9
2022-12-22T14:22:40.120Z,3.9
2022-12-22T14:23:48.536Z,3.9
2022-12-22T14:24:57.107Z,3.5
2022-12-22T14:26:05.501Z,3.5
2022-12-22T14:27:13.954Z,3.5
2022-12-22T14:28:22.432Z,1.5
2022-12-22T14:29:30.756Z,1.5
2022-12-22T14:30:39.345Z,1.5
2022-12-22T15:04:35.737Z,0
2022-12-22T15:05:44.068Z,0
2022-12-22T15:06:52.428Z,0
2022-12-22T15:08:06.402Z,0.9
2022-12-22T15:09:09.354Z,0.9
2022-12-22T15:10:18.078Z,0.9
2022-12-22T15:11:26.248Z,0.8
2022-12-22T15:12:34.588Z,0.8
2022-12-22T15:13:42.935Z,0.8
2022-12-22T15:14:51.488Z,1.1
2022-12-22T15:15:59.846Z,1.1
2022-12-22T15:17:08.287Z,1.1
2022-12-22T15:18:16.780Z,1.2
2022-12-22T15:19:25.131Z,1.2
2022-12-22T15:20:38.894Z,1.2
2022-12-22T15:21:42.048Z,0.9
2022-12-22T15:22:50.378Z,0.9
2022-12-22T15:23:58.726Z,0.9
2022-12-22T15:25:07.294Z,1.4
2022-12-22T15:26:15.624Z,1.4
2022-12-22T15:27:24.021Z,1.4
2022-12-22T15:28:32.565Z,1.4
2022-12-22T15:29:40.945Z,1.4
2022-12-22T15:30:49.371Z,1.4
2022-12-22T15:31:57.827Z,2.2
2022-12-22T15:33:06.197Z,2.2
2022-12-22T15:34:14.577Z,2.2
2022-12-22T15:35:23.133Z,1.1
2022-12-22T15:36:31.530Z,1.1
2022-12-22T15:37:39.866Z,1.1
2022-12-22T15:38:48.445Z,1.2
2022-12-22T15:39:56.740Z,1.2
2022-12-22T15:41:05.058Z,1.2
2022-12-22T15:42:13.600Z,1.4
2022-12-22T15:43:55.488Z,1.4
2022-12-22T15:44:35.208Z,1.4
2022-12-22T15:45:38.818Z,1.3
2022-12-22T15:46:47.103Z,1.3
2022-12-22T15:47:55.442Z,1.3
2022-12-22T15:49:03.989Z,1
2022-12-22T15:50:12.335Z,1
2022-12-22T15:51:20.678Z,1
2022-12-22T15:52:29.329Z,1.2
2022-12-22T15:53:37.555Z,1.2
2022-12-22T15:54:45.897Z,1.2
2022-12-22T15:55:54.447Z,1.7
2022-12-22T15:57:02.767Z,1.7
2022-12-22T15:58:11.082Z,1.7
2022-12-22T15:59:19.607Z,1.7
2022-12-22T16:00:27.941Z,1.7
2022-12-22T16:01:36.376Z,1.7
2022-12-22T16:02:45.025Z,5.8
2022-12-22T16:03:53.169Z,5.8
2022-12-22T16:05:01.419Z,5.8
2022-12-22T16:06:09.935Z,1.6
2022-12-22T16:07:18.269Z,1.6
2022-12-22T16:08:26.620Z,1.6
2022-12-22T16:09:35.101Z,1.6
2022-12-22T16:10:43.434Z,1.6
2022-12-22T16:11:51.768Z,1.6
2022-12-22T16:13:00.572Z,1.3
2022-12-22T16:14:08.644Z,1.3
2022-12-22T16:15:16.962Z,1.3
2022-12-22T16:16:25.603Z,1.4